CheckWX is a tool to help pilots better visualize weather data.  It is not intended as a substitute for an official pre-flight weather briefing.

18:12:21 UTC

DAOB METAR
Bou Chekif Airport
Tiaret, Algeria
Current

1 hour ago

DAOB 211700Z 13010KT 9999 FEW023CB SCT026 31/05 Q1021
Observed
Jul-21 @ 17:00 UTC
Wind
  • 130° at 10 KTS
Visibility
10,000+ meters
Flight Rules
VFR
Cloud Levels
  • Few at 2,300' AGL
  • Scattered at 2,600' AGL
Temperature
31°C / 88°F
Dewpoint
C / 41°F
Humidity
19%
Altimeter
30.15" Hg
Pressure
1020.92 hPa
Previous

2 hours ago

DAOB 211600Z 17023KT 3000 DRSA FEW023CB SCT026 29/07 Q1021
Observed
Jul-21 @ 16:00 UTC
Wind
  • 170° at 23 KTS
Visibility
3,000 meters
Flight Rules
IFR
Conditions
Low drifting Sand
Cloud Levels
  • Few at 2,300' AGL
  • Scattered at 2,600' AGL
Temperature
29°C / 84°F
Dewpoint
C / 45°F
Humidity
25%
Altimeter
30.15" Hg
Pressure
1020.92 hPa
Previous

3 hours ago

DAOB 211505Z 21022KT 3000 DRSA FEW023CB SCT026 36/06 Q1021
Observed
Jul-21 @ 15:05 UTC
Wind
  • 210° at 22 KTS
Visibility
3,000 meters
Flight Rules
IFR
Conditions
Low drifting Sand
Cloud Levels
  • Few at 2,300' AGL
  • Scattered at 2,600' AGL
Temperature
36°C / 97°F
Dewpoint
C / 43°F
Humidity
16%
Altimeter
30.15" Hg
Pressure
1020.92 hPa